Tinsley, MS

7:22 PM CDT on July 18, 2019 (GMT -0500)
North Fourth St. | | Change Station
Active Advisory: Flood Warning

Elev 266 ft 32.55 °N, 90.32 °W | Updated 13 seconds ago

Clear
Clear
93.2 °F
Feels Like 109 °F
N
0
Wind Variable Wind from NW
Gusts 0.0 mph

Today
High -- | Low -- °F
--% Chance of Precip.
Yesterday
High -- | Low -- °F
Precip. -- in
Pressure 29.99 in
Visibility 10.0 miles
Clouds Clear
Heat Index 109 °F
Dew Point 78 °F
Humidity 62%
Rainfall 0.00 in
Snow Depth Not available.
6:06 AM 8:09 PM
Waning Gibbous, 96% visible
METAR KHKS 182353Z VRB04KT 10SM CLR 32/24 A3001 RMK AO2 SLP153 T03220244 10344 20317 56008 $
Pressure 29.99 in
Visibility 10.0 miles
Clouds Clear
Heat Index 109 °F
Dew Point 78 °F
Humidity 62%
Rainfall 0.00 in
Snow Depth Not available.
6:06 AM 8:09 PM
Waning Gibbous, 96% visible
METAR KHKS 182353Z VRB04KT 10SM CLR 32/24 A3001 RMK AO2 SLP153 T03220244 10344 20317 56008 $

Get Your Daily Forecast Email!

Thanks for signing up!

Be on the lookout for a verification email in your inbox.

You'll start receiving severe weather alerts in your inbox..

×

10-Day Weather Forecast

Almanac

Astronomy

Jul. 18, 2019 Rise Set
Actual Time
Civil Twilight
Nautical Twilight
Astronomical Twilight
Moon
Length of Visible Light
Length of Day
Tomorrow will be .
, % of the Moon is Illuminated

Today's Extremes

State Highs State Lows

Community

WunderPhotos

Category 6

Welcome to Category 6. This is the collective home for Weather Underground's featured writeups by Dr. Jeff Masters (right), Bob Henson (left), Chris Burt, and other regular contributors.

Nearby

Air Quality

  Air Quality AQ Index Pollutant
Not available.

Snow Depth

Station Depth Elevation

Earthquake Activity

City Distance Mag. Time & Date
Minimum magnitude displayed is 2.5.

Coastal Water Temperatures

Place Temperature

Stations

Nearby Weather Stations

Station Location Temp. Windchill Dew Point Humidity Wind Precip. Elev Updated Type
                   

Watches & Warnings

Flood Warning
Issued: 11:01 AM CDT Jul. 18, 2019 – National Weather Service


The Flood Warning continues for
the Yazoo River at Yazoo City
* until further notice.
* At 10:00 am Thursday the stage was 32.1 feet.
* Minor flooding is occurring and minor flooding is forecast.
* Flood stage is 29.0 feet.
* Forecast... the river will continue to slowly fall.


              Flood observed forecast 7 am crest
location stg stg day time Fri Sat sun crest time date

Lower Yazoo River
Yazoo City 29 32.1 Thu 10 am 32.0 31.9 31.8




Lat... Lon 3262 9073 3285 9055 3302 9051 3301 9033
      3283 9042 3259 9062